createdAt,value
2018-08-12T00:02:08.060Z,1.63
2018-08-12T00:04:36.734Z,1.40
2018-08-12T00:07:05.669Z,3.07
2018-08-12T00:09:34.493Z,1.47
2018-08-12T00:12:03.272Z,1.73
2018-08-12T00:14:31.996Z,1.87
2018-08-12T00:17:00.672Z,1.10
2018-08-12T00:19:29.448Z,0.73
2018-08-12T00:21:58.123Z,0.70
2018-08-12T00:24:26.779Z,3.00
2018-08-12T00:26:55.416Z,2.00
2018-08-12T00:29:24.072Z,3.13
2018-08-12T00:31:52.751Z,1.57
2018-08-12T00:34:21.425Z,1.73
2018-08-12T00:36:50.123Z,1.70
2018-08-12T00:39:18.786Z,2.40
2018-08-12T00:41:47.491Z,1.40
2018-08-12T00:44:16.116Z,2.17
2018-08-12T00:46:44.787Z,0.90
2018-08-12T00:49:13.422Z,1.43
2018-08-12T00:51:42.215Z,4.10
2018-08-12T00:54:10.879Z,1.53
2018-08-12T00:56:39.628Z,2.00
2018-08-12T00:59:08.260Z,2.57
2018-08-12T01:01:36.904Z,3.20
2018-08-12T01:04:05.708Z,2.20
2018-08-12T01:06:34.399Z,1.43
2018-08-12T01:09:04.526Z,1.20
2018-08-12T01:11:33.265Z,1.33
2018-08-12T01:14:01.957Z,2.00
2018-08-12T01:16:30.771Z,2.20
2018-08-12T01:18:59.531Z,1.10
2018-08-12T01:21:28.276Z,2.43
2018-08-12T01:23:57.073Z,2.20
2018-08-12T01:26:25.800Z,1.63
2018-08-12T01:28:54.466Z,1.13
2018-08-12T01:31:23.235Z,4.13
2018-08-12T01:33:51.904Z,3.67
2018-08-12T01:36:20.556Z,2.20
2018-08-12T01:38:49.196Z,1.57
2018-08-12T01:41:17.849Z,1.63
2018-08-12T01:43:46.496Z,2.17
2018-08-12T01:46:15.187Z,0.77
2018-08-12T01:48:43.911Z,1.83
2018-08-12T01:51:12.611Z,1.20
2018-08-12T01:53:41.336Z,0.80
2018-08-12T01:56:09.960Z,1.43
2018-08-12T01:58:38.671Z,2.60
2018-08-12T02:01:07.325Z,4.57
2018-08-12T02:03:36.037Z,1.03
2018-08-12T02:06:04.784Z,1.73
2018-08-12T02:08:33.435Z,1.67
2018-08-12T02:11:02.127Z,1.53
2018-08-12T02:13:30.795Z,1.47
2018-08-12T02:15:59.424Z,1.13
2018-08-12T02:18:28.143Z,0.80
2018-08-12T02:20:56.840Z,1.50
2018-08-12T02:23:25.429Z,2.60
2018-08-12T02:25:54.128Z,2.57
2018-08-12T02:28:22.827Z,2.00
2018-08-12T02:30:51.556Z,1.27
2018-08-12T02:33:20.266Z,1.80
2018-08-12T02:35:48.907Z,1.27
2018-08-12T02:38:17.544Z,1.87
2018-08-12T02:40:46.194Z,1.20
2018-08-12T02:43:14.915Z,1.20
2018-08-12T02:45:43.576Z,1.00
2018-08-12T02:48:12.217Z,2.40
2018-08-12T02:50:40.955Z,1.70
2018-08-12T02:53:09.688Z,1.43
2018-08-12T02:55:38.361Z,3.37
2018-08-12T02:58:07.110Z,1.00
2018-08-12T03:00:35.814Z,2.83
2018-08-12T03:03:04.476Z,2.57
2018-08-12T03:05:33.105Z,2.33
2018-08-12T03:08:01.770Z,1.07
2018-08-12T03:10:30.465Z,1.27
2018-08-12T03:12:59.123Z,3.03
2018-08-12T03:15:27.777Z,2.10
2018-08-12T03:17:56.413Z,0.87
2018-08-12T03:20:25.185Z,1.47
2018-08-12T03:22:53.841Z,3.43
2018-08-12T03:25:22.500Z,3.70
2018-08-12T03:27:51.159Z,1.17
2018-08-12T03:30:20.000Z,3.73
2018-08-12T03:32:48.592Z,2.70
2018-08-12T03:35:17.300Z,1.93
2018-08-12T03:37:45.957Z,1.23
2018-08-12T03:40:14.619Z,1.50
2018-08-12T03:42:43.653Z,6.10
2018-08-12T03:45:12.321Z,2.77
2018-08-12T03:47:41.004Z,3.27
2018-08-12T03:50:10.696Z,2.67
2018-08-12T03:52:39.587Z,1.50
2018-08-12T03:55:08.749Z,4.43
2018-08-12T03:57:37.920Z,1.30
2018-08-12T04:00:16.517Z,1.77
2018-08-12T04:02:46.467Z,1.53
2018-08-12T04:05:15.455Z,1.93
2018-08-12T04:07:44.168Z,1.67
2018-08-12T04:10:12.972Z,1.50
2018-08-12T04:12:41.645Z,1.20
2018-08-12T04:15:11.381Z,2.20
2018-08-12T04:17:40.386Z,0.93
2018-08-12T04:20:10.048Z,2.00
2018-08-12T04:22:38.790Z,2.33
2018-08-12T04:25:07.468Z,2.60
2018-08-12T04:27:36.300Z,1.73
2018-08-12T04:30:06.856Z,2.97
2018-08-12T04:32:35.520Z,3.10
2018-08-12T04:35:04.635Z,2.80
2018-08-12T04:37:33.318Z,1.73
2018-08-12T04:40:01.953Z,1.97
2018-08-12T04:42:30.727Z,1.73
2018-08-12T04:44:59.399Z,1.57
2018-08-12T04:47:28.068Z,1.47
2018-08-12T04:49:56.691Z,1.73
2018-08-12T04:52:25.315Z,1.10
2018-08-12T04:54:53.954Z,2.77
2018-08-12T04:57:22.579Z,1.97
2018-08-12T04:59:51.201Z,1.87
2018-08-12T05:02:19.835Z,1.57
2018-08-12T05:04:48.475Z,6.07
2018-08-12T05:07:17.220Z,3.40
2018-08-12T05:09:45.907Z,1.10
2018-08-12T05:12:14.579Z,1.20
2018-08-12T05:14:43.231Z,1.17
2018-08-12T05:17:11.920Z,1.20
2018-08-12T05:19:40.566Z,1.83
2018-08-12T05:22:09.256Z,1.87
2018-08-12T05:24:37.908Z,1.53
2018-08-12T05:27:06.652Z,1.63
2018-08-12T05:29:35.289Z,1.57
2018-08-12T05:32:04.092Z,1.57
2018-08-12T05:34:32.747Z,2.20
2018-08-12T05:37:01.428Z,1.50
2018-08-12T05:39:30.059Z,1.47
2018-08-12T05:41:58.683Z,2.50
2018-08-12T05:44:27.388Z,1.30
2018-08-12T05:46:56.029Z,1.50
2018-08-12T05:49:24.676Z,1.37
2018-08-12T05:51:53.337Z,1.03
2018-08-12T05:54:21.999Z,1.07
2018-08-12T05:56:50.823Z,1.47
2018-08-12T05:59:19.509Z,1.30
2018-08-12T06:01:48.167Z,1.37
2018-08-12T06:04:16.805Z,3.47
2018-08-12T06:06:45.425Z,1.67
2018-08-12T06:09:14.080Z,2.20
2018-08-12T06:11:42.765Z,3.30
2018-08-12T06:14:11.401Z,1.93
2018-08-12T06:16:40.091Z,1.73
2018-08-12T06:19:08.854Z,1.57
2018-08-12T06:21:37.622Z,4.63
2018-08-12T06:24:06.296Z,1.63
2018-08-12T06:26:34.979Z,1.80
2018-08-12T06:29:03.729Z,1.10
2018-08-12T06:31:32.419Z,1.63
2018-08-12T06:34:01.093Z,0.67
2018-08-12T06:36:29.776Z,1.00
2018-08-12T06:38:58.464Z,3.00
2018-08-12T06:41:27.111Z,2.00
2018-08-12T06:43:55.752Z,1.47
2018-08-12T06:46:24.454Z,0.83
2018-08-12T06:48:53.081Z,1.63
2018-08-12T06:51:21.814Z,1.13
2018-08-12T06:53:50.460Z,1.43
2018-08-12T06:56:19.121Z,1.87
2018-08-12T06:58:47.793Z,2.60
2018-08-12T07:01:16.480Z,1.20
2018-08-12T07:03:45.130Z,2.87
2018-08-12T07:06:13.846Z,2.23
2018-08-12T07:08:42.511Z,1.10
2018-08-12T07:11:12.063Z,2.40
2018-08-12T07:13:40.704Z,1.17
2018-08-12T07:16:09.372Z,1.83
2018-08-12T07:18:38.064Z,2.37
2018-08-12T07:21:06.712Z,1.40
2018-08-12T07:23:35.418Z,2.80
2018-08-12T07:26:04.252Z,1.27
2018-08-12T07:28:32.872Z,1.63
2018-08-12T07:31:01.568Z,1.67
2018-08-12T07:33:30.235Z,2.58
2018-08-12T07:35:58.906Z,1.82
2018-08-12T07:38:27.688Z,1.30
2018-08-12T07:40:56.376Z,1.47
2018-08-12T07:43:25.068Z,1.98
2018-08-12T07:45:53.812Z,0.80
2018-08-12T07:48:22.456Z,2.90
2018-08-12T07:50:51.094Z,1.92
2018-08-12T07:53:19.707Z,1.42
2018-08-12T07:55:48.427Z,1.40
2018-08-12T07:58:17.099Z,2.43
2018-08-12T08:00:45.775Z,2.83
2018-08-12T08:03:14.424Z,3.10
2018-08-12T08:05:43.199Z,2.17
2018-08-12T08:08:11.872Z,1.03
2018-08-12T08:10:40.544Z,1.50
2018-08-12T08:13:09.192Z,0.97
2018-08-12T08:15:37.815Z,1.87
2018-08-12T08:18:06.662Z,7.80
2018-08-12T08:20:35.754Z,3.10
2018-08-12T08:23:04.455Z,2.87
2018-08-12T08:25:33.177Z,2.80
2018-08-12T08:28:01.858Z,1.93
2018-08-12T08:30:30.523Z,1.43
2018-08-12T08:32:59.165Z,1.53
2018-08-12T08:38:02.182Z,2.27
2018-08-12T08:40:30.848Z,1.50
2018-08-12T08:42:59.536Z,2.13
2018-08-12T08:45:28.279Z,2.70
2018-08-12T08:47:56.896Z,2.33
2018-08-12T08:50:25.577Z,1.47
2018-08-12T08:52:54.291Z,2.97
2018-08-12T08:55:23.080Z,2.60
2018-08-12T08:57:51.764Z,4.30
2018-08-12T09:00:21.149Z,1.43
2018-08-12T09:02:52.175Z,1.20
2018-08-12T09:05:21.157Z,1.60
2018-08-12T09:07:52.727Z,1.50
2018-08-12T09:10:21.706Z,2.63
2018-08-12T09:12:50.419Z,0.80
2018-08-12T09:15:19.849Z,2.53
2018-08-12T09:17:49.012Z,2.30
2018-08-12T09:20:19.912Z,1.30
2018-08-12T09:22:48.580Z,2.07
2018-08-12T09:25:17.646Z,1.07
2018-08-12T09:27:46.391Z,1.00
2018-08-12T09:30:20.532Z,1.73
2018-08-12T09:32:50.038Z,2.20
2018-08-12T09:35:18.869Z,1.33
2018-08-12T09:37:47.592Z,1.03
2018-08-12T09:40:17.443Z,1.63
2018-08-12T09:42:47.118Z,2.07
2018-08-12T09:45:17.808Z,1.27
2018-08-12T09:47:46.648Z,1.00
2018-08-12T09:50:17.688Z,0.80
2018-08-12T09:52:47.297Z,1.70
2018-08-12T09:55:16.601Z,2.70
2018-08-12T09:57:45.289Z,1.20
2018-08-12T10:00:21.714Z,0.70
2018-08-12T10:02:51.865Z,2.20
2018-08-12T10:05:20.697Z,0.90
2018-08-12T10:07:49.439Z,2.57
2018-08-12T10:10:18.237Z,1.63
2018-08-12T10:12:47.201Z,1.57
2018-08-12T10:15:16.494Z,1.73
2018-08-12T10:17:49.407Z,0.80
2018-08-12T10:20:18.140Z,1.93
2018-08-12T10:22:46.920Z,1.13
2018-08-12T10:25:15.762Z,1.40
2018-08-12T10:27:44.780Z,4.50
2018-08-12T10:30:14.272Z,2.95
2018-08-12T10:32:43.068Z,2.10
2018-08-12T10:35:13.282Z,1.65
2018-08-12T10:37:42.428Z,1.15
2018-08-12T10:40:14.740Z,5.65
2018-08-12T10:42:44.352Z,2.12
2018-08-12T10:45:13.348Z,2.15
2018-08-12T10:47:42.540Z,2.20
2018-08-12T10:50:13.688Z,1.75
2018-08-12T10:52:43.691Z,1.90
2018-08-12T10:55:13.855Z,3.60
2018-08-12T10:57:42.815Z,1.15
2018-08-12T11:00:13.996Z,3.12
2018-08-12T11:02:43.016Z,2.77
2018-08-12T11:05:11.931Z,2.58
2018-08-12T11:07:40.823Z,3.45
2018-08-12T11:10:10.456Z,1.57
2018-08-12T11:12:39.234Z,1.57
2018-08-12T11:15:08.744Z,1.30
2018-08-12T11:17:37.891Z,2.00
2018-08-12T11:20:07.000Z,2.65
2018-08-12T11:22:35.707Z,3.20
2018-08-12T11:25:04.724Z,1.55
2018-08-12T11:27:33.656Z,1.47
2018-08-12T11:30:02.343Z,2.70
2018-08-12T11:32:31.060Z,1.67
2018-08-12T11:34:59.744Z,2.22
2018-08-12T11:37:28.437Z,2.90
2018-08-12T11:39:57.094Z,3.20
2018-08-12T11:42:25.784Z,2.00
2018-08-12T11:44:54.472Z,1.00
2018-08-12T11:47:23.176Z,1.85
2018-08-12T11:49:51.907Z,2.90
2018-08-12T11:52:20.656Z,1.32
2018-08-12T11:54:49.400Z,1.75
2018-08-12T11:57:18.060Z,2.55
2018-08-12T11:59:46.705Z,1.67
2018-08-12T12:02:15.370Z,1.60
2018-08-12T12:04:44.056Z,1.85
2018-08-12T12:07:12.712Z,3.70
2018-08-12T12:09:41.390Z,3.15
2018-08-12T12:12:10.052Z,1.75
2018-08-12T12:14:38.761Z,2.25
2018-08-12T12:17:07.437Z,3.47
2018-08-12T12:19:36.118Z,2.98
2018-08-12T12:22:04.823Z,1.70
2018-08-12T12:24:33.452Z,2.00
2018-08-12T12:27:02.120Z,2.22
2018-08-12T12:29:30.820Z,1.70
2018-08-12T12:31:59.515Z,1.75
2018-08-12T12:34:28.145Z,2.47
2018-08-12T12:36:56.785Z,4.70
2018-08-12T12:39:25.457Z,1.90
2018-08-12T12:41:54.149Z,2.37
2018-08-12T12:44:22.813Z,2.00
2018-08-12T12:46:51.504Z,2.37
2018-08-12T12:49:20.206Z,2.62
2018-08-12T12:51:48.864Z,2.67
2018-08-12T12:54:17.542Z,2.67
2018-08-12T12:56:46.253Z,3.17
2018-08-12T12:59:15.280Z,3.90
2018-08-12T13:01:43.945Z,2.58
2018-08-12T13:04:12.607Z,3.65
2018-08-12T13:06:41.301Z,6.30
2018-08-12T13:09:12.069Z,3.83
2018-08-12T13:11:40.880Z,4.62
2018-08-12T13:14:09.592Z,2.67
2018-08-12T13:16:38.362Z,2.70
2018-08-12T13:19:07.197Z,3.55
2018-08-12T13:21:36.016Z,3.10
2018-08-12T13:24:04.886Z,4.95
2018-08-12T13:26:33.583Z,4.25
2018-08-12T13:29:02.245Z,3.55
2018-08-12T13:31:30.982Z,7.58
2018-08-12T13:33:59.683Z,4.87
2018-08-12T13:36:28.373Z,4.35
2018-08-12T13:38:57.102Z,6.12
2018-08-12T13:41:25.736Z,6.62
2018-08-12T13:43:54.430Z,7.78
2018-08-12T13:46:23.162Z,4.72
2018-08-12T13:48:51.886Z,5.03
2018-08-12T13:51:20.569Z,7.37
2018-08-12T13:53:49.216Z,7.70
2018-08-12T13:56:17.872Z,4.30
2018-08-12T13:58:46.493Z,5.92
2018-08-12T14:01:15.183Z,5.22
2018-08-12T14:03:43.840Z,6.33
2018-08-12T14:06:12.520Z,5.65
2018-08-12T14:08:41.203Z,5.42
2018-08-12T14:11:09.947Z,4.60
2018-08-12T14:13:38.733Z,6.53
2018-08-12T14:16:07.459Z,7.95
2018-08-12T14:18:36.179Z,7.53
2018-08-12T14:21:04.834Z,4.55
2018-08-12T14:23:33.500Z,5.17
2018-08-12T14:26:02.157Z,8.58
2018-08-12T14:28:30.840Z,5.47
2018-08-12T14:30:59.528Z,9.00
2018-08-12T14:33:28.232Z,6.50
2018-08-12T14:35:56.422Z,8.18
2018-08-12T14:38:25.101Z,9.60
2018-08-12T14:40:53.784Z,11.57
2018-08-12T14:43:22.459Z,7.22
2018-08-12T14:45:51.203Z,10.00
2018-08-12T14:48:19.935Z,9.15
2018-08-12T14:50:48.624Z,9.88
2018-08-12T14:53:17.306Z,8.83
2018-08-12T14:55:45.928Z,11.97
2018-08-12T14:58:14.658Z,10.08
2018-08-12T15:00:43.358Z,9.40
2018-08-12T15:03:12.065Z,10.37
2018-08-12T15:05:40.730Z,10.97
2018-08-12T15:08:09.565Z,13.27
2018-08-12T15:10:38.200Z,12.20
2018-08-12T15:13:06.881Z,12.37
2018-08-12T15:15:35.590Z,12.05
2018-08-12T15:18:04.788Z,13.00
2018-08-12T15:20:33.467Z,12.30
2018-08-12T15:23:02.131Z,12.97
2018-08-12T15:25:30.780Z,12.53
2018-08-12T15:27:59.477Z,13.50
2018-08-12T15:30:28.173Z,13.87
2018-08-12T15:32:56.885Z,13.53
2018-08-12T15:35:25.533Z,13.10
2018-08-12T15:37:54.164Z,13.43
2018-08-12T15:40:22.868Z,11.90
2018-08-12T15:42:51.677Z,12.50
2018-08-12T15:45:20.305Z,12.93
2018-08-12T15:47:49.155Z,12.47
2018-08-12T15:50:17.814Z,12.40
2018-08-12T15:52:47.068Z,12.47
2018-08-12T15:55:15.938Z,11.97
2018-08-12T15:57:44.600Z,12.83
2018-08-12T16:00:18.461Z,12.77
2018-08-12T16:02:47.149Z,13.80
2018-08-12T16:05:15.831Z,12.53
2018-08-12T16:07:45.737Z,13.17
2018-08-12T16:10:17.347Z,11.53
2018-08-12T16:12:47.404Z,11.97
2018-08-12T16:15:16.208Z,12.37
2018-08-12T16:17:44.947Z,12.13
2018-08-12T16:20:13.804Z,12.13
2018-08-12T16:22:42.720Z,11.37
2018-08-12T16:25:14.004Z,11.80
2018-08-12T16:27:43.324Z,12.00
2018-08-12T16:30:13.652Z,12.93
2018-08-12T16:32:42.430Z,11.40
2018-08-12T16:35:13.015Z,12.27
2018-08-12T16:37:42.536Z,14.07
2018-08-12T16:40:13.032Z,11.87
2018-08-12T16:42:41.728Z,12.53
2018-08-12T16:45:12.201Z,10.77
2018-08-12T16:47:41.025Z,10.83
2018-08-12T16:50:10.624Z,10.70
2018-08-12T16:52:39.692Z,13.17
2018-08-12T16:55:15.009Z,10.53
2018-08-12T16:57:44.666Z,12.63
2018-08-12T17:00:19.062Z,15.30
2018-08-12T17:02:47.953Z,9.87
2018-08-12T17:05:24.091Z,11.73
2018-08-12T17:07:53.129Z,10.50
2018-08-12T17:10:22.009Z,9.60
2018-08-12T17:12:50.681Z,10.67
2018-08-12T17:15:20.588Z,8.70
2018-08-12T17:17:49.616Z,10.30
2018-08-12T17:20:19.608Z,9.10
2018-08-12T17:22:48.671Z,10.03
2018-08-12T17:25:17.413Z,15.43
2018-08-12T17:27:46.287Z,9.20
2018-08-12T17:30:15.820Z,10.27
2018-08-12T17:32:44.478Z,10.00
2018-08-12T17:35:13.192Z,11.80
2018-08-12T17:37:43.192Z,8.70
2018-08-12T17:40:13.115Z,9.13
2018-08-12T17:42:41.807Z,10.37
2018-08-12T17:45:11.819Z,9.47
2018-08-12T17:47:41.104Z,12.27
2018-08-12T17:50:11.348Z,12.67
2018-08-12T17:52:40.300Z,11.10
2018-08-12T17:55:09.163Z,10.50
2018-08-12T17:57:37.908Z,11.13
2018-08-12T18:00:11.776Z,10.80
2018-08-12T18:02:40.494Z,12.67
2018-08-12T18:05:09.571Z,8.63
2018-08-12T18:07:38.744Z,12.03
2018-08-12T18:10:07.417Z,10.10
2018-08-12T18:12:36.544Z,10.43
2018-08-12T18:15:06.564Z,7.33
2018-08-12T18:17:35.244Z,9.27
2018-08-12T18:20:04.560Z,11.40
2018-08-12T18:22:33.229Z,9.80
2018-08-12T18:25:01.960Z,6.90
2018-08-12T18:27:30.604Z,7.67
2018-08-12T18:29:59.272Z,10.07
2018-08-12T18:32:27.908Z,10.33
2018-08-12T18:34:56.622Z,11.17
2018-08-12T18:37:25.265Z,8.97
2018-08-12T18:39:53.952Z,10.43
2018-08-12T18:42:22.600Z,10.83
2018-08-12T18:44:51.228Z,9.13
2018-08-12T18:47:19.879Z,9.10
2018-08-12T18:49:48.499Z,16.90
2018-08-12T18:52:17.137Z,10.80
2018-08-12T18:54:45.771Z,8.13
2018-08-12T18:57:14.480Z,13.10
2018-08-12T18:59:43.137Z,6.53
2018-08-12T19:02:12.037Z,9.17
2018-08-12T19:04:40.811Z,11.57
2018-08-12T19:07:09.500Z,10.20
2018-08-12T19:09:38.237Z,9.87
2018-08-12T19:12:06.947Z,14.97
2018-08-12T19:14:35.929Z,10.90
2018-08-12T19:17:04.640Z,9.37
2018-08-12T19:19:33.296Z,11.37
2018-08-12T19:22:01.985Z,10.53
2018-08-12T19:24:30.644Z,11.67
2018-08-12T19:26:59.299Z,10.97
2018-08-12T19:29:27.918Z,9.73
2018-08-12T19:31:56.549Z,12.40
2018-08-12T19:34:25.216Z,9.03
2018-08-12T19:36:53.907Z,10.77
2018-08-12T19:39:22.529Z,9.77
2018-08-12T19:41:51.144Z,10.80
2018-08-12T19:44:19.770Z,10.17
2018-08-12T19:46:48.491Z,11.07
2018-08-12T19:49:17.108Z,10.23
2018-08-12T19:51:45.785Z,16.37
2018-08-12T19:54:14.399Z,11.43
2018-08-12T19:56:43.033Z,11.33
2018-08-12T19:59:11.676Z,9.13
2018-08-12T20:01:40.331Z,14.87
2018-08-12T20:04:08.942Z,12.03
2018-08-12T20:06:37.602Z,12.70
2018-08-12T20:09:09.072Z,11.00
2018-08-12T20:11:37.762Z,9.73
2018-08-12T20:14:06.524Z,8.50
2018-08-12T20:16:35.219Z,8.93
2018-08-12T20:19:03.958Z,10.10
2018-08-12T20:21:32.771Z,10.33
2018-08-12T20:24:01.957Z,9.47
2018-08-12T20:26:30.627Z,11.77
2018-08-12T20:28:59.269Z,9.27
2018-08-12T20:31:28.036Z,11.87
2018-08-12T20:33:56.690Z,8.80
2018-08-12T20:36:25.506Z,13.43
2018-08-12T20:38:54.415Z,13.47
2018-08-12T20:41:23.137Z,12.57
2018-08-12T20:43:51.863Z,10.60
2018-08-12T20:46:20.527Z,10.77
2018-08-12T20:48:49.234Z,7.83
2018-08-12T20:51:17.884Z,12.07
2018-08-12T20:53:46.528Z,10.73
2018-08-12T20:56:15.171Z,9.80
2018-08-12T20:58:43.803Z,10.87
2018-08-12T21:01:12.500Z,9.07
2018-08-12T21:03:41.171Z,9.93
2018-08-12T21:06:09.832Z,12.73
2018-08-12T21:08:38.483Z,11.20
2018-08-12T21:11:07.356Z,7.63
2018-08-12T21:13:36.011Z,12.63
2018-08-12T21:16:04.741Z,9.07
2018-08-12T21:18:33.808Z,10.17
2018-08-12T21:21:02.452Z,10.73
2018-08-12T21:23:31.128Z,11.60
2018-08-12T21:25:59.868Z,10.23
2018-08-12T21:28:28.499Z,11.73
2018-08-12T21:30:57.148Z,10.80
2018-08-12T21:33:25.870Z,12.27
2018-08-12T21:35:54.516Z,9.93
2018-08-12T21:38:23.187Z,13.03
2018-08-12T21:40:51.898Z,15.00
2018-08-12T21:43:20.573Z,11.53
2018-08-12T21:45:49.212Z,9.93
2018-08-12T21:48:17.924Z,12.60
2018-08-12T21:50:46.625Z,10.30
2018-08-12T21:53:15.332Z,7.77
2018-08-12T21:55:43.991Z,13.90
2018-08-12T21:58:12.676Z,3.10
2018-08-12T22:00:41.432Z,5.17
2018-08-12T22:03:10.117Z,5.07
2018-08-12T22:05:38.761Z,6.37
2018-08-12T22:08:07.553Z,3.43
2018-08-12T22:10:36.836Z,13.27
2018-08-12T22:13:05.746Z,7.80
2018-08-12T22:15:36.303Z,9.30
2018-08-12T22:18:06.141Z,5.77
2018-08-12T22:20:35.304Z,5.30
2018-08-12T22:23:07.011Z,5.63
2018-08-12T22:25:35.699Z,8.73
2018-08-12T22:28:07.549Z,8.03
2018-08-12T22:30:36.882Z,5.53
2018-08-12T22:33:05.797Z,7.40
2018-08-12T22:35:34.499Z,5.60
2018-08-12T22:38:03.309Z,9.23
2018-08-12T22:40:33.839Z,8.30
2018-08-12T22:43:03.493Z,7.10
2018-08-12T22:45:32.143Z,6.30
2018-08-12T22:48:01.716Z,7.07
2018-08-12T22:50:30.368Z,8.13
2018-08-12T22:52:59.005Z,5.50
2018-08-12T22:55:28.151Z,7.00
2018-08-12T22:57:56.850Z,4.97
2018-08-12T23:00:26.383Z,5.50
2018-08-12T23:02:55.161Z,4.40
2018-08-12T23:05:24.109Z,3.37
2018-08-12T23:07:52.866Z,6.37
2018-08-12T23:10:21.592Z,4.80
2018-08-12T23:12:50.212Z,5.00
2018-08-12T23:15:29.952Z,3.50
2018-08-12T23:17:58.601Z,2.83
2018-08-12T23:20:27.232Z,4.23
2018-08-12T23:22:55.908Z,4.20
2018-08-12T23:25:24.544Z,2.83
2018-08-12T23:27:56.247Z,4.30
2018-08-12T23:30:24.892Z,2.37
2018-08-12T23:32:53.548Z,2.77
2018-08-12T23:35:22.200Z,3.50
2018-08-12T23:37:50.885Z,3.37
2018-08-12T23:40:19.568Z,3.50
2018-08-12T23:42:48.223Z,2.97
2018-08-12T23:45:16.865Z,2.77
2018-08-12T23:47:45.523Z,1.87
2018-08-12T23:50:14.268Z,2.63
2018-08-12T23:52:42.897Z,3.07
2018-08-12T23:55:11.569Z,3.23
2018-08-12T23:57:40.199Z,2.50
